sensor_id;sensor_type;location;lat;lon;timestamp;pressure;altitude;pressure_sealevel;temperature
24278;BMP280;12394;42.692;23.314;2023-05-09T00:00:51;95283.25;;;13.84
24278;BMP280;12394;42.692;23.314;2023-05-09T00:03:16;95287.84;;;13.80
24278;BMP280;12394;42.692;23.314;2023-05-09T00:05:42;95285.97;;;13.77
24278;BMP280;12394;42.692;23.314;2023-05-09T00:08:07;95278.09;;;13.77
24278;BMP280;12394;42.692;23.314;2023-05-09T00:10:33;95279.59;;;13.78
24278;BMP280;12394;42.692;23.314;2023-05-09T00:12:58;95285.84;;;13.88
24278;BMP280;12394;42.692;23.314;2023-05-09T00:15:25;95283.25;;;13.84
24278;BMP280;12394;42.692;23.314;2023-05-09T00:17:50;95285.00;;;13.94
24278;BMP280;12394;42.692;23.314;2023-05-09T00:20:16;95291.34;;;13.97
24278;BMP280;12394;42.692;23.314;2023-05-09T00:22:41;95282.69;;;13.96
24278;BMP280;12394;42.692;23.314;2023-05-09T00:25:08;95283.44;;;13.97
24278;BMP280;12394;42.692;23.314;2023-05-09T00:27:34;95274.41;;;13.98
24278;BMP280;12394;42.692;23.314;2023-05-09T00:30:00;95278.53;;;13.99
24278;BMP280;12394;42.692;23.314;2023-05-09T00:32:25;95257.28;;;13.86
24278;BMP280;12394;42.692;23.314;2023-05-09T00:34:52;95270.69;;;13.95
24278;BMP280;12394;42.692;23.314;2023-05-09T00:37:18;95254.41;;;13.80
24278;BMP280;12394;42.692;23.314;2023-05-09T00:39:49;95273.00;;;13.93
24278;BMP280;12394;42.692;23.314;2023-05-09T00:42:15;95270.34;;;13.93
24278;BMP280;12394;42.692;23.314;2023-05-09T00:44:40;95263.25;;;13.90
24278;BMP280;12394;42.692;23.314;2023-05-09T00:47:06;95268.50;;;13.90
24278;BMP280;12394;42.692;23.314;2023-05-09T00:49:32;95270.13;;;13.84
24278;BMP280;12394;42.692;23.314;2023-05-09T00:51:58;95269.31;;;13.87
24278;BMP280;12394;42.692;23.314;2023-05-09T00:54:23;95263.75;;;13.81
24278;BMP280;12394;42.692;23.314;2023-05-09T00:56:50;95271.59;;;13.85
24278;BMP280;12394;42.692;23.314;2023-05-09T00:59:15;95270.88;;;13.85
24278;BMP280;12394;42.692;23.314;2023-05-09T01:01:42;95253.19;;;13.85
24278;BMP280;12394;42.692;23.314;2023-05-09T01:04:11;95261.72;;;13.93
24278;BMP280;12394;42.692;23.314;2023-05-09T01:09:34;95263.06;;;13.77
24278;BMP280;12394;42.692;23.314;2023-05-09T01:12:35;95269.19;;;13.71
24278;BMP280;12394;42.692;23.314;2023-05-09T01:22:35;95252.66;;;13.44
24278;BMP280;12394;42.692;23.314;2023-05-09T01:28:09;95266.78;;;13.53
24278;BMP280;12394;42.692;23.314;2023-05-09T01:30:37;95266.44;;;13.51
24278;BMP280;12394;42.692;23.314;2023-05-09T01:33:05;95264.56;;;13.52
24278;BMP280;12394;42.692;23.314;2023-05-09T01:35:32;95267.81;;;13.59
24278;BMP280;12394;42.692;23.314;2023-05-09T01:38:01;95270.06;;;13.61
24278;BMP280;12394;42.692;23.314;2023-05-09T01:40:30;95269.25;;;13.64
24278;BMP280;12394;42.692;23.314;2023-05-09T01:43:02;95269.69;;;13.59
24278;BMP280;12394;42.692;23.314;2023-05-09T01:45:28;95268.63;;;13.56
24278;BMP280;12394;42.692;23.314;2023-05-09T01:47:56;95273.88;;;13.56
24278;BMP280;12394;42.692;23.314;2023-05-09T01:50:23;95269.81;;;13.52
24278;BMP280;12394;42.692;23.314;2023-05-09T01:52:52;95265.44;;;13.42
24278;BMP280;12394;42.692;23.314;2023-05-09T01:55:20;95269.44;;;13.50
24278;BMP280;12394;42.692;23.314;2023-05-09T01:57:46;95280.31;;;13.52
24278;BMP280;12394;42.692;23.314;2023-05-09T02:00:12;95283.97;;;13.61
24278;BMP280;12394;42.692;23.314;2023-05-09T02:02:39;95269.81;;;13.52
24278;BMP280;12394;42.692;23.314;2023-05-09T02:05:08;95272.78;;;13.54
24278;BMP280;12394;42.692;23.314;2023-05-09T02:07:35;95261.66;;;13.43
24278;BMP280;12394;42.692;23.314;2023-05-09T02:10:02;95272.44;;;13.52
24278;BMP280;12394;42.692;23.314;2023-05-09T02:12:28;95278.88;;;13.47
24278;BMP280;12394;42.692;23.314;2023-05-09T02:14:53;95271.06;;;13.40
24278;BMP280;12394;42.692;23.314;2023-05-09T02:17:19;95271.06;;;13.40
24278;BMP280;12394;42.692;23.314;2023-05-09T02:19:45;95274.75;;;13.46
24278;BMP280;12394;42.692;23.314;2023-05-09T02:22:11;95265.75;;;13.47
24278;BMP280;12394;42.692;23.314;2023-05-09T02:24:37;95270.31;;;13.43
24278;BMP280;12394;42.692;23.314;2023-05-09T02:27:04;95267.69;;;13.43
24278;BMP280;12394;42.692;23.314;2023-05-09T02:29:34;95274.44;;;13.44
24278;BMP280;12394;42.692;23.314;2023-05-09T02:32:10;95273.69;;;13.44
24278;BMP280;12394;42.692;23.314;2023-05-09T02:34:37;95278.84;;;13.51
24278;BMP280;12394;42.692;23.314;2023-05-09T02:37:03;95279.84;;;13.60
24278;BMP280;12394;42.692;23.314;2023-05-09T02:39:30;95277.09;;;13.67
24278;BMP280;12394;42.692;23.314;2023-05-09T02:41:55;95283.97;;;13.61
24278;BMP280;12394;42.692;23.314;2023-05-09T02:44:20;95275.72;;;13.59
24278;BMP280;12394;42.692;23.314;2023-05-09T02:46:46;95277.94;;;13.61
24278;BMP280;12394;42.692;23.314;2023-05-09T02:49:11;95272.34;;;13.59
24278;BMP280;12394;42.692;23.314;2023-05-09T02:51:36;95271.94;;;13.60
24278;BMP280;12394;42.692;23.314;2023-05-09T02:54:02;95272.75;;;13.57
24278;BMP280;12394;42.692;23.314;2023-05-09T02:56:27;95273.50;;;13.58
24278;BMP280;12394;42.692;23.314;2023-05-09T02:58:53;95278.75;;;13.58
24278;BMP280;12394;42.692;23.314;2023-05-09T03:01:18;95269.81;;;13.52
24278;BMP280;12394;42.692;23.314;2023-05-09T03:03:43;95270.94;;;13.51
24278;BMP280;12394;42.692;23.314;2023-05-09T03:06:10;95280.72;;;13.50
24278;BMP280;12394;42.692;23.314;2023-05-09T03:08:35;95279.63;;;13.48
24278;BMP280;12394;42.692;23.314;2023-05-09T03:11:00;95285.22;;;13.50
24278;BMP280;12394;42.692;23.314;2023-05-09T03:13:26;95270.69;;;13.42
24278;BMP280;12394;42.692;23.314;2023-05-09T03:15:51;95284.88;;;13.48
24278;BMP280;12394;42.692;23.314;2023-05-09T03:18:17;95293.09;;;13.53
24278;BMP280;12394;42.692;23.314;2023-05-09T03:20:43;95300.25;;;13.49
24278;BMP280;12394;42.692;23.314;2023-05-09T03:23:08;95302.16;;;13.49
24278;BMP280;12394;42.692;23.314;2023-05-09T03:25:34;95323.13;;;13.52
24278;BMP280;12394;42.692;23.314;2023-05-09T03:27:59;95320.13;;;13.50
24278;BMP280;12394;42.692;23.314;2023-05-09T03:30:25;95307.09;;;13.43
24278;BMP280;12394;42.692;23.314;2023-05-09T03:32:51;95304.81;;;13.45
24278;BMP280;12394;42.692;23.314;2023-05-09T03:35:17;95316.31;;;13.55
24278;BMP280;12394;42.692;23.314;2023-05-09T03:37:42;95312.63;;;13.52
24278;BMP280;12394;42.692;23.314;2023-05-09T03:40:08;95303.63;;;13.50
24278;BMP280;12394;42.692;23.314;2023-05-09T03:42:33;95337.31;;;13.58
24278;BMP280;12394;42.692;23.314;2023-05-09T03:44:58;95332.78;;;13.59
24278;BMP280;12394;42.692;23.314;2023-05-09T03:47:24;95326.78;;;13.62
24278;BMP280;12394;42.692;23.314;2023-05-09T03:49:49;95327.16;;;13.60
24278;BMP280;12394;42.692;23.314;2023-05-09T03:52:15;95326.78;;;13.58
24278;BMP280;12394;42.692;23.314;2023-05-09T03:54:40;95329.72;;;13.64
24278;BMP280;12394;42.692;23.314;2023-05-09T03:57:05;95312.56;;;13.56
24278;BMP280;12394;42.692;23.314;2023-05-09T03:59:31;95331.91;;;13.69
24278;BMP280;12394;42.692;23.314;2023-05-09T04:01:56;95327.06;;;13.67
24278;BMP280;12394;42.692;23.314;2023-05-09T04:04:22;95333.50;;;13.63
24278;BMP280;12394;42.692;23.314;2023-05-09T04:06:47;95325.66;;;13.59
24278;BMP280;12394;42.692;23.314;2023-05-09T04:09:12;95320.09;;;13.54
24278;BMP280;12394;42.692;23.314;2023-05-09T04:11:38;95322.06;;;13.46
24278;BMP280;12394;42.692;23.314;2023-05-09T04:14:04;95328.16;;;13.40
24278;BMP280;12394;42.692;23.314;2023-05-09T04:16:31;95328.56;;;13.38
24278;BMP280;12394;42.692;23.314;2023-05-09T04:18:57;95332.31;;;13.37
24278;BMP280;12394;42.692;23.314;2023-05-09T04:21:22;95321.25;;;13.19
24278;BMP280;12394;42.692;23.314;2023-05-09T04:23:47;95335.09;;;13.23
24278;BMP280;12394;42.692;23.314;2023-05-09T04:26:13;95339.50;;;13.33
24278;BMP280;12394;42.692;23.314;2023-05-09T04:28:39;95345.72;;;13.46
24278;BMP280;12394;42.692;23.314;2023-05-09T04:31:05;95341.13;;;13.54
24278;BMP280;12394;42.692;23.314;2023-05-09T04:33:30;95336.59;;;13.58
24278;BMP280;12394;42.692;23.314;2023-05-09T04:35:56;95328.59;;;13.65
24278;BMP280;12394;42.692;23.314;2023-05-09T04:38:22;95341.63;;;13.72
24278;BMP280;12394;42.692;23.314;2023-05-09T04:40:47;95341.13;;;13.84
24278;BMP280;12394;42.692;23.314;2023-05-09T04:43:13;95342.41;;;13.99
24278;BMP280;12394;42.692;23.314;2023-05-09T04:45:38;95339.38;;;14.01
24278;BMP280;12394;42.692;23.314;2023-05-09T04:48:04;95346.03;;;14.09
24278;BMP280;12394;42.692;23.314;2023-05-09T04:50:29;95347.47;;;14.13
24278;BMP280;12394;42.692;23.314;2023-05-09T04:52:55;95343.59;;;14.21
24278;BMP280;12394;42.692;23.314;2023-05-09T04:55:20;95339.31;;;14.31
24278;BMP280;12394;42.692;23.314;2023-05-09T04:57:45;95343.03;;;14.34
24278;BMP280;12394;42.692;23.314;2023-05-09T05:00:12;95341.47;;;14.40
24278;BMP280;12394;42.692;23.314;2023-05-09T05:02:37;95339.63;;;14.37
24278;BMP280;12394;42.692;23.314;2023-05-09T05:05:03;95337.69;;;14.41
24278;BMP280;12394;42.692;23.314;2023-05-09T05:07:28;95340.66;;;14.43
24278;BMP280;12394;42.692;23.314;2023-05-09T05:09:54;95338.28;;;14.52
24278;BMP280;12394;42.692;23.314;2023-05-09T05:12:19;95324.72;;;14.53
24278;BMP280;12394;42.692;23.314;2023-05-09T05:14:45;95335.72;;;14.68
24278;BMP280;12394;42.692;23.314;2023-05-09T05:17:11;95342.41;;;14.76
24278;BMP280;12394;42.692;23.314;2023-05-09T05:19:37;95339.69;;;14.80
24278;BMP280;12394;42.692;23.314;2023-05-09T05:22:21;95340.38;;;14.84
24278;BMP280;12394;42.692;23.314;2023-05-09T05:24:47;95295.25;;;14.58
24278;BMP280;12394;42.692;23.314;2023-05-09T05:27:12;95334.72;;;15.05
24278;BMP280;12394;42.692;23.314;2023-05-09T05:29:38;95355.22;;;15.37
24278;BMP280;12394;42.692;23.314;2023-05-09T05:32:03;95353.03;;;15.32
24278;BMP280;12394;42.692;23.314;2023-05-09T05:34:31;95353.72;;;15.36
24278;BMP280;12394;42.692;23.314;2023-05-09T05:36:56;95353.88;;;15.48
24278;BMP280;12394;42.692;23.314;2023-05-09T05:39:22;95356.47;;;15.52
24278;BMP280;12394;42.692;23.314;2023-05-09T05:41:47;95343.72;;;15.47
24278;BMP280;12394;42.692;23.314;2023-05-09T05:44:12;95358.81;;;15.66
24278;BMP280;12394;42.692;23.314;2023-05-09T05:46:38;95363.63;;;15.71
24278;BMP280;12394;42.692;23.314;2023-05-09T05:49:03;95346.78;;;15.65
24278;BMP280;12394;42.692;23.314;2023-05-09T05:51:29;95364.13;;;15.63
24278;BMP280;12394;42.692;23.314;2023-05-09T05:53:55;95346.19;;;15.57
24278;BMP280;12394;42.692;23.314;2023-05-09T05:56:20;95361.78;;;15.68
24278;BMP280;12394;42.692;23.314;2023-05-09T05:58:46;95363.53;;;15.75
24278;BMP280;12394;42.692;23.314;2023-05-09T06:01:12;95366.75;;;15.82
24278;BMP280;12394;42.692;23.314;2023-05-09T06:03:38;95360.59;;;15.89
24278;BMP280;12394;42.692;23.314;2023-05-09T06:06:03;95358.16;;;15.98
24278;BMP280;12394;42.692;23.314;2023-05-09T06:08:29;95351.59;;;15.86
24278;BMP280;12394;42.692;23.314;2023-05-09T06:10:55;95359.84;;;15.88
24278;BMP280;12394;42.692;23.314;2023-05-09T06:13:20;95352.94;;;15.94
24278;BMP280;12394;42.692;23.314;2023-05-09T06:15:45;95361.91;;;16.17
24278;BMP280;12394;42.692;23.314;2023-05-09T06:18:11;95362.28;;;16.31
24278;BMP280;12394;42.692;23.314;2023-05-09T06:20:36;95355.44;;;16.50
24278;BMP280;12394;42.692;23.314;2023-05-09T06:23:02;95360.31;;;16.52
24278;BMP280;12394;42.692;23.314;2023-05-09T06:25:27;95344.41;;;16.39
24278;BMP280;12394;42.692;23.314;2023-05-09T06:27:52;95361.81;;;16.69
24278;BMP280;12394;42.692;23.314;2023-05-09T06:30:18;95360.94;;;16.75
24278;BMP280;12394;42.692;23.314;2023-05-09T06:32:43;95369.75;;;16.85
24278;BMP280;12394;42.692;23.314;2023-05-09T06:35:09;95364.84;;;17.00
24278;BMP280;12394;42.692;23.314;2023-05-09T06:37:34;95369.91;;;16.94
24278;BMP280;12394;42.692;23.314;2023-05-09T06:39:59;95366.00;;;16.99
24278;BMP280;12394;42.692;23.314;2023-05-09T06:42:25;95359.88;;;17.02
24278;BMP280;12394;42.692;23.314;2023-05-09T06:44:50;95364.66;;;17.07
24278;BMP280;12394;42.692;23.314;2023-05-09T06:47:16;95360.19;;;17.04
24278;BMP280;12394;42.692;23.314;2023-05-09T06:49:41;95358.53;;;17.10
24278;BMP280;12394;42.692;23.314;2023-05-09T06:52:08;95362.34;;;17.09
24278;BMP280;12394;42.692;23.314;2023-05-09T06:54:33;95369.66;;;16.88
24278;BMP280;12394;42.692;23.314;2023-05-09T06:56:58;95363.06;;;16.48
24278;BMP280;12394;42.692;23.314;2023-05-09T06:59:24;95363.78;;;16.32
24278;BMP280;12394;42.692;23.314;2023-05-09T07:01:49;95364.44;;;16.36
24278;BMP280;12394;42.692;23.314;2023-05-09T07:04:15;95357.34;;;16.33
24278;BMP280;12394;42.692;23.314;2023-05-09T07:06:40;95362.56;;;16.21
24278;BMP280;12394;42.692;23.314;2023-05-09T07:09:06;95350.97;;;15.98
24278;BMP280;12394;42.692;23.314;2023-05-09T07:11:35;95359.78;;;15.92
24278;BMP280;12394;42.692;23.314;2023-05-09T07:14:00;95350.94;;;15.82
24278;BMP280;12394;42.692;23.314;2023-05-09T07:16:26;95341.56;;;15.97
24278;BMP280;12394;42.692;23.314;2023-05-09T07:18:53;95347.69;;;16.11
24278;BMP280;12394;42.692;23.314;2023-05-09T07:21:19;95361.72;;;16.40
24278;BMP280;12394;42.692;23.314;2023-05-09T07:23:44;95362.88;;;16.55
24278;BMP280;12394;42.692;23.314;2023-05-09T07:26:09;95361.06;;;16.36
24278;BMP280;12394;42.692;23.314;2023-05-09T07:28:35;95359.91;;;16.21
24278;BMP280;12394;42.692;23.314;2023-05-09T07:31:00;95359.81;;;16.24
24278;BMP280;12394;42.692;23.314;2023-05-09T07:33:26;95353.63;;;16.31
24278;BMP280;12394;42.692;23.314;2023-05-09T07:35:52;95356.78;;;16.42
24278;BMP280;12394;42.692;23.314;2023-05-09T07:38:17;95360.44;;;16.64
24278;BMP280;12394;42.692;23.314;2023-05-09T07:40:42;95360.31;;;16.35
24278;BMP280;12394;42.692;23.314;2023-05-09T07:43:08;95364.19;;;15.98
24278;BMP280;12394;42.692;23.314;2023-05-09T07:45:33;95367.28;;;15.93
24278;BMP280;12394;42.692;23.314;2023-05-09T07:47:59;95365.03;;;15.76
24278;BMP280;12394;42.692;23.314;2023-05-09T07:50:25;95365.16;;;15.69
24278;BMP280;12394;42.692;23.314;2023-05-09T07:52:50;95365.16;;;15.69
24278;BMP280;12394;42.692;23.314;2023-05-09T07:55:16;95359.25;;;15.81
24278;BMP280;12394;42.692;23.314;2023-05-09T07:57:42;95366.19;;;15.91
24278;BMP280;12394;42.692;23.314;2023-05-09T08:00:08;95361.03;;;16.03
24278;BMP280;12394;42.692;23.314;2023-05-09T08:02:34;95353.41;;;16.25
24278;BMP280;12394;42.692;23.314;2023-05-09T08:05:00;95354.13;;;16.42
24278;BMP280;12394;42.692;23.314;2023-05-09T08:07:25;95348.31;;;16.67
24278;BMP280;12394;42.692;23.314;2023-05-09T08:09:51;95356.94;;;16.83
24278;BMP280;12394;42.692;23.314;2023-05-09T08:12:16;95355.59;;;17.08
24278;BMP280;12394;42.692;23.314;2023-05-09T08:14:41;95357.69;;;17.42
24278;BMP280;12394;42.692;23.314;2023-05-09T08:17:07;95361.38;;;17.60
24278;BMP280;12394;42.692;23.314;2023-05-09T08:19:32;95352.94;;;17.49
24278;BMP280;12394;42.692;23.314;2023-05-09T08:21:57;95358.81;;;17.57
24278;BMP280;12394;42.692;23.314;2023-05-09T08:24:23;95363.59;;;17.62
24278;BMP280;12394;42.692;23.314;2023-05-09T08:26:48;95350.63;;;17.93
24278;BMP280;12394;42.692;23.314;2023-05-09T08:29:14;95359.41;;;18.65
24278;BMP280;12394;42.692;23.314;2023-05-09T08:31:40;95361.22;;;18.90
24278;BMP280;12394;42.692;23.314;2023-05-09T08:34:05;95356.59;;;19.16
24278;BMP280;12394;42.692;23.314;2023-05-09T08:36:31;95366.06;;;19.26
24278;BMP280;12394;42.692;23.314;2023-05-09T08:38:56;95352.84;;;19.70
24278;BMP280;12394;42.692;23.314;2023-05-09T08:41:24;95347.19;;;19.89
24278;BMP280;12394;42.692;23.314;2023-05-09T08:43:52;95361.91;;;20.12
24278;BMP280;12394;42.692;23.314;2023-05-09T08:46:23;95365.50;;;19.96
24278;BMP280;12394;42.692;23.314;2023-05-09T08:48:49;95352.72;;;19.51
24278;BMP280;12394;42.692;23.314;2023-05-09T08:51:16;95348.97;;;19.62
24278;BMP280;12394;42.692;23.314;2023-05-09T08:53:42;95345.44;;;19.43
24278;BMP280;12394;42.692;23.314;2023-05-09T08:56:08;95346.97;;;19.75
24278;BMP280;12394;42.692;23.314;2023-05-09T08:58:33;95345.19;;;19.50
24278;BMP280;12394;42.692;23.314;2023-05-09T09:01:01;95346.72;;;19.38
24278;BMP280;12394;42.692;23.314;2023-05-09T09:03:29;95343.88;;;19.11
24278;BMP280;12394;42.692;23.314;2023-05-09T09:05:55;95337.75;;;18.67
24278;BMP280;12394;42.692;23.314;2023-05-09T09:08:22;95342.47;;;18.25
24278;BMP280;12394;42.692;23.314;2023-05-09T09:10:48;95341.63;;;18.03
24278;BMP280;12394;42.692;23.314;2023-05-09T09:13:15;95340.22;;;17.86
24278;BMP280;12394;42.692;23.314;2023-05-09T09:15:43;95349.34;;;17.43
24278;BMP280;12394;42.692;23.314;2023-05-09T09:18:23;95334.94;;;17.03
24278;BMP280;12394;42.692;23.314;2023-05-09T09:20:56;95356.44;;;16.88
24278;BMP280;12394;42.692;23.314;2023-05-09T09:23:24;95346.53;;;16.76
24278;BMP280;12394;42.692;23.314;2023-05-09T09:26:02;95349.97;;;16.61
24278;BMP280;12394;42.692;23.314;2023-05-09T09:28:29;95326.09;;;16.48
24278;BMP280;12394;42.692;23.314;2023-05-09T09:31:18;95348.03;;;16.45
24278;BMP280;12394;42.692;23.314;2023-05-09T09:33:44;95333.19;;;16.35
24278;BMP280;12394;42.692;23.314;2023-05-09T09:36:09;95340.44;;;16.47
24278;BMP280;12394;42.692;23.314;2023-05-09T09:38:39;95342.44;;;16.43
24278;BMP280;12394;42.692;23.314;2023-05-09T09:41:04;95352.31;;;16.55
24278;BMP280;12394;42.692;23.314;2023-05-09T09:43:30;95340.59;;;16.72
24278;BMP280;12394;42.692;23.314;2023-05-09T09:45:59;95349.56;;;17.07
24278;BMP280;12394;42.692;23.314;2023-05-09T09:48:26;95337.06;;;17.08
24278;BMP280;12394;42.692;23.314;2023-05-09T09:51:02;95341.25;;;17.21
24278;BMP280;12394;42.692;23.314;2023-05-09T09:53:40;95347.53;;;17.40
24278;BMP280;12394;42.692;23.314;2023-05-09T09:56:06;95351.56;;;17.45
24278;BMP280;12394;42.692;23.314;2023-05-09T09:58:32;95339.78;;;17.33
24278;BMP280;12394;42.692;23.314;2023-05-09T10:01:08;95344.53;;;16.97
24278;BMP280;12394;42.692;23.314;2023-05-09T10:03:39;95348.72;;;16.65
24278;BMP280;12394;42.692;23.314;2023-05-09T10:06:08;95345.41;;;16.61
24278;BMP280;12394;42.692;23.314;2023-05-09T10:08:34;95339.69;;;16.79
24278;BMP280;12394;42.692;23.314;2023-05-09T10:11:00;95329.22;;;16.75
24278;BMP280;12394;42.692;23.314;2023-05-09T10:13:26;95340.22;;;17.03
24278;BMP280;12394;42.692;23.314;2023-05-09T10:15:53;95345.06;;;17.20
24278;BMP280;12394;42.692;23.314;2023-05-09T10:18:28;95342.88;;;17.03
24278;BMP280;12394;42.692;23.314;2023-05-09T10:20:55;95322.63;;;16.96
24278;BMP280;12394;42.692;23.314;2023-05-09T10:23:25;95329.91;;;16.92
24278;BMP280;12394;42.692;23.314;2023-05-09T10:25:59;95337.31;;;16.68
24278;BMP280;12394;42.692;23.314;2023-05-09T10:28:31;95330.22;;;16.65
24278;BMP280;12394;42.692;23.314;2023-05-09T10:31:13;95327.28;;;16.92
24278;BMP280;12394;42.692;23.314;2023-05-09T10:33:46;95331.53;;;17.31
24278;BMP280;12394;42.692;23.314;2023-05-09T10:36:14;95317.25;;;17.28
24278;BMP280;12394;42.692;23.314;2023-05-09T10:38:41;95321.59;;;17.76
24278;BMP280;12394;42.692;23.314;2023-05-09T10:41:07;95323.19;;;17.87
24278;BMP280;12394;42.692;23.314;2023-05-09T10:43:34;95332.09;;;17.93
24278;BMP280;12394;42.692;23.314;2023-05-09T10:46:01;95322.97;;;17.81
24278;BMP280;12394;42.692;23.314;2023-05-09T10:48:27;95325.63;;;18.06
24278;BMP280;12394;42.692;23.314;2023-05-09T10:50:53;95326.34;;;17.82
24278;BMP280;12394;42.692;23.314;2023-05-09T10:53:19;95318.03;;;17.42
24278;BMP280;12394;42.692;23.314;2023-05-09T10:58:28;95331.00;;;17.36
24278;BMP280;12394;42.692;23.314;2023-05-09T11:00:57;95330.72;;;17.05
24278;BMP280;12394;42.692;23.314;2023-05-09T11:03:24;95332.09;;;17.10
24278;BMP280;12394;42.692;23.314;2023-05-09T11:05:51;95327.09;;;17.41
24278;BMP280;12394;42.692;23.314;2023-05-09T11:10:55;95311.50;;;18.47
24278;BMP280;12394;42.692;23.314;2023-05-09T11:13:23;95328.00;;;18.64
24278;BMP280;12394;42.692;23.314;2023-05-09T11:18:48;95335.75;;;18.71
24278;BMP280;12394;42.692;23.314;2023-05-09T11:21:14;95338.53;;;18.55
24278;BMP280;12394;42.692;23.314;2023-05-09T11:23:39;95350.09;;;18.23
24278;BMP280;12394;42.692;23.314;2023-05-09T11:26:07;95328.97;;;18.45
24278;BMP280;12394;42.692;23.314;2023-05-09T11:28:35;95333.00;;;18.62
24278;BMP280;12394;42.692;23.314;2023-05-09T11:31:14;95343.41;;;18.31
24278;BMP280;12394;42.692;23.314;2023-05-09T11:34:00;95330.50;;;17.95
24278;BMP280;12394;42.692;23.314;2023-05-09T11:36:31;95335.44;;;18.31
24278;BMP280;12394;42.692;23.314;2023-05-09T11:39:29;95328.34;;;18.41
24278;BMP280;12394;42.692;23.314;2023-05-09T11:41:55;95325.19;;;17.95
24278;BMP280;12394;42.692;23.314;2023-05-09T11:44:20;95323.94;;;18.00
24278;BMP280;12394;42.692;23.314;2023-05-09T11:46:47;95326.13;;;18.27
24278;BMP280;12394;42.692;23.314;2023-05-09T11:49:13;95314.16;;;18.35
24278;BMP280;12394;42.692;23.314;2023-05-09T11:51:39;95325.59;;;18.57
24278;BMP280;12394;42.692;23.314;2023-05-09T11:54:07;95340.63;;;18.47
24278;BMP280;12394;42.692;23.314;2023-05-09T11:56:39;95306.88;;;17.75
24278;BMP280;12394;42.692;23.314;2023-05-09T11:59:06;95325.72;;;17.77
24278;BMP280;12394;42.692;23.314;2023-05-09T12:01:31;95319.44;;;17.59
24278;BMP280;12394;42.692;23.314;2023-05-09T12:04:17;95324.44;;;17.82
24278;BMP280;12394;42.692;23.314;2023-05-09T12:06:46;95306.13;;;17.62
24278;BMP280;12394;42.692;23.314;2023-05-09T12:09:12;95325.41;;;17.75
24278;BMP280;12394;42.692;23.314;2023-05-09T12:11:49;95326.28;;;17.85
24278;BMP280;12394;42.692;23.314;2023-05-09T12:14:33;95327.50;;;17.68
24278;BMP280;12394;42.692;23.314;2023-05-09T12:16:59;95328.94;;;17.15
24278;BMP280;12394;42.692;23.314;2023-05-09T12:19:27;95326.78;;;16.97
24278;BMP280;12394;42.692;23.314;2023-05-09T12:22:00;95329.72;;;16.70
24278;BMP280;12394;42.692;23.314;2023-05-09T12:24:27;95321.63;;;16.45
24278;BMP280;12394;42.692;23.314;2023-05-09T12:26:57;95321.25;;;15.78
24278;BMP280;12394;42.692;23.314;2023-05-09T12:29:24;95318.97;;;15.41
24278;BMP280;12394;42.692;23.314;2023-05-09T12:31:52;95334.13;;;15.17
24278;BMP280;12394;42.692;23.314;2023-05-09T12:34:18;95319.22;;;14.87
24278;BMP280;12394;42.692;23.314;2023-05-09T12:36:44;95319.94;;;14.68
24278;BMP280;12394;42.692;23.314;2023-05-09T12:39:15;95318.72;;;14.73
24278;BMP280;12394;42.692;23.314;2023-05-09T12:41:45;95317.88;;;14.56
24278;BMP280;12394;42.692;23.314;2023-05-09T12:44:21;95318.34;;;14.51
24278;BMP280;12394;42.692;23.314;2023-05-09T12:47:03;95314.41;;;14.62
24278;BMP280;12394;42.692;23.314;2023-05-09T12:49:29;95324.28;;;14.78
24278;BMP280;12394;42.692;23.314;2023-05-09T12:51:57;95322.53;;;14.91
24278;BMP280;12394;42.692;23.314;2023-05-09T12:54:27;95310.16;;;14.68
24278;BMP280;12394;42.692;23.314;2023-05-09T12:56:54;95304.25;;;14.61
24278;BMP280;12394;42.692;23.314;2023-05-09T12:59:26;95302.09;;;14.56
24278;BMP280;12394;42.692;23.314;2023-05-09T13:01:53;95306.31;;;14.50
24278;BMP280;12394;42.692;23.314;2023-05-09T13:04:19;95305.34;;;14.40
24278;BMP280;12394;42.692;23.314;2023-05-09T13:06:47;95300.47;;;14.15
24278;BMP280;12394;42.692;23.314;2023-05-09T13:09:13;95293.94;;;14.23
24278;BMP280;12394;42.692;23.314;2023-05-09T13:11:39;95299.59;;;14.49
24278;BMP280;12394;42.692;23.314;2023-05-09T13:14:04;95305.31;;;14.67
24278;BMP280;12394;42.692;23.314;2023-05-09T13:16:29;95303.34;;;14.71
24278;BMP280;12394;42.692;23.314;2023-05-09T13:18:58;95297.41;;;14.67
24278;BMP280;12394;42.692;23.314;2023-05-09T13:21:25;95300.50;;;14.62
24278;BMP280;12394;42.692;23.314;2023-05-09T13:23:51;95291.16;;;14.57
24278;BMP280;12394;42.692;23.314;2023-05-09T13:26:16;95290.41;;;14.57
24278;BMP280;12394;42.692;23.314;2023-05-09T13:28:42;95300.09;;;14.40
24278;BMP280;12394;42.692;23.314;2023-05-09T13:31:09;95292.59;;;14.39
24278;BMP280;12394;42.692;23.314;2023-05-09T13:33:34;95304.16;;;14.45
24278;BMP280;12394;42.692;23.314;2023-05-09T13:36:00;95304.84;;;14.49
24278;BMP280;12394;42.692;23.314;2023-05-09T13:38:25;95288.88;;;14.36
24278;BMP280;12394;42.692;23.314;2023-05-09T13:40:54;95285.38;;;14.43
24278;BMP280;12394;42.692;23.314;2023-05-09T13:43:21;95288.78;;;14.43
24278;BMP280;12394;42.692;23.314;2023-05-09T13:45:46;95288.13;;;14.36
24278;BMP280;12394;42.692;23.314;2023-05-09T13:48:12;95297.25;;;14.27
24278;BMP280;12394;42.692;23.314;2023-05-09T13:50:37;95280.72;;;14.27
24278;BMP280;12394;42.692;23.314;2023-05-09T13:53:03;95295.72;;;14.30
24278;BMP280;12394;42.692;23.314;2023-05-09T13:55:28;95294.16;;;14.33
24278;BMP280;12394;42.692;23.314;2023-05-09T13:57:55;95284.66;;;14.15
24278;BMP280;12394;42.692;23.314;2023-05-09T14:00:21;95288.09;;;14.12
24278;BMP280;12394;42.692;23.314;2023-05-09T14:02:50;95302.72;;;14.13
24278;BMP280;12394;42.692;23.314;2023-05-09T14:05:15;95294.50;;;14.11
24278;BMP280;12394;42.692;23.314;2023-05-09T14:07:41;95289.94;;;14.15
24278;BMP280;12394;42.692;23.314;2023-05-09T14:10:07;95304.22;;;14.14
24278;BMP280;12394;42.692;23.314;2023-05-09T14:12:32;95284.81;;;14.05
24278;BMP280;12394;42.692;23.314;2023-05-09T14:14:58;95287.56;;;13.98
24278;BMP280;12394;42.692;23.314;2023-05-09T14:17:23;95287.06;;;14.06